createdAt,value
2016-07-11T00:00:13.762Z,66.99
2016-07-11T00:15:07.890Z,66.41
2016-07-11T00:30:20.428Z,66.78
2016-07-11T00:45:07.819Z,69.95
2016-07-11T01:00:08.239Z,70.8
2016-07-11T01:15:10.183Z,71.08
2016-07-11T01:30:07.792Z,71.46
2016-07-11T01:45:09.512Z,71.8
2016-07-11T02:00:05.198Z,73.17
2016-07-11T02:15:07.798Z,73.16
2016-07-11T02:30:07.877Z,73.69
2016-07-11T02:45:07.809Z,74.06
2016-07-11T03:00:07.225Z,73.94
2016-07-11T03:15:03.208Z,73.24
2016-07-11T03:30:07.838Z,72.01
2016-07-11T03:45:08.149Z,70.55
2016-07-11T04:00:08.094Z,70.05
2016-07-11T04:15:16.240Z,70.05
2016-07-11T04:30:07.853Z,70.2
2016-07-11T04:45:17.754Z,69.91
2016-07-11T05:00:03.219Z,68.54
2016-07-11T05:15:07.819Z,68.54
2016-07-11T05:30:07.864Z,67.1
2016-07-11T05:45:09.555Z,67.28
2016-07-11T06:00:13.646Z,66.43
2016-07-11T06:15:12.265Z,63.61
2016-07-11T06:30:07.894Z,64.33
2016-07-11T06:45:07.819Z,63.48
2016-07-11T07:00:03.244Z,63.14
2016-07-11T07:15:03.262Z,63.1
2016-07-11T07:30:08.252Z,62.43
2016-07-11T07:45:16.078Z,60.98
2016-07-11T08:00:03.275Z,57.69
2016-07-11T08:15:08.319Z,54.72
2016-07-11T08:30:09.934Z,56.76
2016-07-11T08:45:07.887Z,58.48
2016-07-11T09:00:03.303Z,59.36
2016-07-11T09:15:03.305Z,61.09
2016-07-11T09:30:07.894Z,59.43
2016-07-11T09:45:03.370Z,56.84
2016-07-11T10:00:03.331Z,57.76
2016-07-11T10:15:03.330Z,56.8
2016-07-11T10:30:03.325Z,49.74
2016-07-11T10:45:03.388Z,49.35
2016-07-11T11:00:03.337Z,50.3
2016-07-11T11:15:03.351Z,50.72
2016-07-11T11:30:09.568Z,50.84
2016-07-11T11:45:08.027Z,48.29
2016-07-11T12:00:08.030Z,45.73
2016-07-11T12:15:14.720Z,44.27
2016-07-11T12:30:08.308Z,44.9
2016-07-11T12:45:09.628Z,43.08
2016-07-11T13:00:08.428Z,42.72
2016-07-11T13:15:06.335Z,41.05
2016-07-11T13:30:05.536Z,42.82
2016-07-11T13:45:09.563Z,43.55
2016-07-11T14:00:08.341Z,42.5
2016-07-11T14:15:06.344Z,38.93
2016-07-11T14:30:03.420Z,39.86
2016-07-11T14:45:03.433Z,39.48
2016-07-11T15:00:03.484Z,38.59
2016-07-11T15:15:09.661Z,39.7
2016-07-11T15:30:08.049Z,39.69
2016-07-11T15:45:16.279Z,40.84
2016-07-11T16:00:14.685Z,38.57
2016-07-11T16:15:14.616Z,39.95
2016-07-11T16:30:06.399Z,40.43
2016-07-11T16:45:03.483Z,41.63
2016-07-11T17:00:08.088Z,42.33
2016-07-11T17:15:08.104Z,43.06
2016-07-11T17:30:08.070Z,42.15
2016-07-11T17:45:05.609Z,43.3
2016-07-11T18:00:08.230Z,44.44
2016-07-11T18:15:03.494Z,46.83
2016-07-11T18:30:08.138Z,45.89
2016-07-11T18:45:10.591Z,46.39
2016-07-11T19:00:08.105Z,47.78
2016-07-11T19:15:11.733Z,47.68
2016-07-11T19:30:08.170Z,49.87
2016-07-11T19:45:03.547Z,51.18
2016-07-11T20:00:08.109Z,52.73
2016-07-11T20:15:03.529Z,52.18
2016-07-11T20:30:08.506Z,52.06
2016-07-11T20:45:03.552Z,52.35
2016-07-11T21:00:08.494Z,53.98
2016-07-11T21:15:08.153Z,55.63
2016-07-11T21:30:03.553Z,54.81
2016-07-11T21:45:08.230Z,57.4
2016-07-11T22:00:05.663Z,59.12
2016-07-11T22:15:03.577Z,59.27
2016-07-11T22:30:08.197Z,60.3
2016-07-11T22:45:08.205Z,58.29
2016-07-11T23:00:16.499Z,57.61
2016-07-11T23:15:08.179Z,58.19
2016-07-11T23:30:08.172Z,57.95
2016-07-11T23:45:03.590Z,58.69
